createdAt,value
2017-08-20T00:02:23.118Z,61.70
2017-08-20T00:04:49.296Z,62.30
2017-08-20T00:07:15.480Z,62.00
2017-08-20T00:09:42.439Z,62.80
2017-08-20T00:12:08.646Z,62.80
2017-08-20T00:14:34.861Z,63.20
2017-08-20T00:17:01.121Z,63.40
2017-08-20T00:19:27.529Z,64.00
2017-08-20T00:21:53.764Z,64.10
2017-08-20T00:24:20.122Z,63.70
2017-08-20T00:26:46.323Z,64.30
2017-08-20T00:29:12.606Z,64.10
2017-08-20T00:31:39.597Z,64.00
2017-08-20T00:34:05.879Z,64.20
2017-08-20T00:36:32.116Z,64.40
2017-08-20T00:38:58.319Z,64.40
2017-08-20T00:41:25.427Z,64.10
2017-08-20T00:43:51.770Z,63.90
2017-08-20T00:46:18.070Z,64.10
2017-08-20T00:48:47.761Z,64.80
2017-08-20T00:51:14.059Z,64.50
2017-08-20T00:53:40.317Z,64.80
2017-08-20T00:56:06.605Z,64.90
2017-08-20T00:58:32.848Z,65.10
2017-08-20T01:00:59.055Z,64.70
2017-08-20T01:03:25.251Z,64.40
2017-08-20T01:05:51.416Z,64.20
2017-08-20T01:08:17.604Z,64.40
2017-08-20T01:10:43.823Z,64.20
2017-08-20T01:13:10.008Z,63.80
2017-08-20T01:15:36.175Z,63.70
2017-08-20T01:18:05.913Z,63.70
2017-08-20T01:20:32.439Z,64.00
2017-08-20T01:22:58.728Z,64.60
2017-08-20T01:25:25.020Z,64.50
2017-08-20T01:27:51.419Z,64.30
2017-08-20T01:30:17.937Z,64.30
2017-08-20T01:32:44.115Z,64.10
2017-08-20T01:35:10.324Z,64.40
2017-08-20T01:37:36.647Z,64.10
2017-08-20T01:40:02.884Z,63.90
2017-08-20T01:42:29.074Z,63.70
2017-08-20T01:44:55.310Z,63.70
2017-08-20T01:47:21.592Z,64.00
2017-08-20T01:49:47.908Z,64.40
2017-08-20T01:52:14.072Z,64.80
2017-08-20T01:54:40.386Z,64.40
2017-08-20T01:57:07.303Z,64.10
2017-08-20T01:59:33.463Z,64.10
2017-08-20T02:02:01.132Z,64.10
2017-08-20T02:04:27.421Z,64.40
2017-08-20T02:06:53.572Z,64.50
2017-08-20T02:09:19.775Z,64.50
2017-08-20T02:11:46.253Z,64.40
2017-08-20T02:14:13.639Z,65.10
2017-08-20T02:16:39.878Z,64.30
2017-08-20T02:19:06.835Z,63.60
2017-08-20T02:21:33.766Z,63.80
2017-08-20T02:24:00.692Z,64.20
2017-08-20T02:26:28.998Z,64.10
2017-08-20T02:28:55.263Z,64.10
2017-08-20T02:31:21.468Z,64.20
2017-08-20T02:33:47.770Z,64.30
2017-08-20T02:36:14.060Z,64.40
2017-08-20T02:38:40.321Z,64.70
2017-08-20T02:41:07.233Z,65.00
2017-08-20T02:43:33.387Z,65.00
2017-08-20T02:45:59.664Z,64.80
2017-08-20T02:48:25.888Z,64.80
2017-08-20T02:50:52.099Z,65.10
2017-08-20T02:53:18.291Z,64.40
2017-08-20T02:55:44.500Z,64.20
2017-08-20T02:58:10.675Z,63.70
2017-08-20T03:00:36.874Z,64.20
2017-08-20T03:03:03.054Z,63.80
2017-08-20T03:05:29.281Z,64.20
2017-08-20T03:07:55.523Z,63.80
2017-08-20T03:10:21.723Z,64.20
2017-08-20T03:12:48.388Z,64.40
2017-08-20T03:15:14.624Z,64.60
2017-08-20T03:17:40.932Z,63.70
2017-08-20T03:20:07.211Z,63.50
2017-08-20T03:22:33.386Z,64.30
2017-08-20T03:24:59.627Z,64.50
2017-08-20T03:27:25.808Z,64.10
2017-08-20T03:29:52.120Z,64.00
2017-08-20T03:32:19.071Z,63.30
2017-08-20T03:34:45.240Z,63.30
2017-08-20T03:37:11.463Z,63.30
2017-08-20T03:39:37.675Z,63.50
2017-08-20T03:42:03.896Z,63.20
2017-08-20T03:44:30.078Z,63.20
2017-08-20T03:46:56.293Z,63.10
2017-08-20T03:49:22.494Z,63.80
2017-08-20T03:51:48.678Z,63.90
2017-08-20T03:54:15.575Z,63.40
2017-08-20T03:56:41.755Z,63.40
2017-08-20T03:59:07.952Z,63.10
2017-08-20T04:01:34.120Z,63.00
2017-08-20T04:04:00.291Z,63.20
2017-08-20T04:06:26.515Z,63.80
2017-08-20T04:08:53.146Z,63.20
2017-08-20T04:11:19.703Z,63.30
2017-08-20T04:13:45.887Z,63.30
2017-08-20T04:16:12.142Z,63.20
2017-08-20T04:18:38.375Z,63.00
2017-08-20T04:21:05.027Z,63.30
2017-08-20T04:23:31.360Z,63.20
2017-08-20T04:25:57.690Z,63.50
2017-08-20T04:28:24.620Z,64.00
2017-08-20T04:30:50.871Z,64.00
2017-08-20T04:33:17.041Z,64.70
2017-08-20T04:35:43.289Z,63.70
2017-08-20T04:38:09.473Z,64.20
2017-08-20T04:40:35.689Z,63.70
2017-08-20T04:43:01.940Z,64.70
2017-08-20T04:45:28.121Z,64.70
2017-08-20T04:47:55.072Z,64.90
2017-08-20T04:50:21.267Z,64.80
2017-08-20T04:52:47.445Z,64.90
2017-08-20T04:55:13.624Z,65.00
2017-08-20T04:57:39.783Z,65.00
2017-08-20T05:00:05.938Z,65.10
2017-08-20T05:02:32.159Z,65.20
2017-08-20T05:04:58.388Z,65.20
2017-08-20T05:07:24.581Z,65.80
2017-08-20T05:09:50.743Z,65.20
2017-08-20T05:12:16.916Z,65.00
2017-08-20T05:14:43.076Z,64.50
2017-08-20T05:17:10.012Z,64.00
2017-08-20T05:19:36.224Z,64.20
2017-08-20T05:22:02.404Z,64.20
2017-08-20T05:24:28.579Z,64.30
2017-08-20T05:26:54.785Z,64.00
2017-08-20T05:29:21.025Z,64.40
2017-08-20T05:31:47.684Z,63.60
2017-08-20T05:34:14.583Z,63.60
2017-08-20T05:36:40.755Z,63.40
2017-08-20T05:39:06.981Z,62.90
2017-08-20T05:41:33.280Z,62.60
2017-08-20T05:43:59.536Z,62.80
2017-08-20T05:46:29.823Z,62.70
2017-08-20T05:48:56.001Z,62.60
2017-08-20T05:51:47.597Z,62.60
2017-08-20T05:54:14.041Z,62.60
2017-08-20T05:56:40.224Z,62.60
2017-08-20T05:59:06.451Z,62.40
2017-08-20T06:01:32.780Z,62.40
2017-08-20T06:03:59.112Z,62.00
2017-08-20T06:06:25.275Z,62.20
2017-08-20T06:08:51.517Z,62.30
2017-08-20T06:11:17.994Z,62.50
2017-08-20T06:13:44.288Z,62.10
2017-08-20T06:16:10.436Z,62.10
2017-08-20T06:18:36.707Z,62.10
2017-08-20T06:21:03.523Z,61.80
2017-08-20T06:23:29.786Z,61.70
2017-08-20T06:25:55.956Z,61.10
2017-08-20T06:28:22.144Z,61.40
2017-08-20T06:30:49.038Z,61.60
2017-08-20T06:33:18.808Z,61.60
2017-08-20T06:35:45.021Z,61.20
2017-08-20T06:38:11.279Z,61.20
2017-08-20T06:40:37.477Z,60.80
2017-08-20T06:43:03.660Z,60.40
2017-08-20T06:45:29.837Z,60.90
2017-08-20T06:47:56.744Z,60.60
2017-08-20T06:50:22.944Z,60.60
2017-08-20T06:52:49.091Z,60.00
2017-08-20T06:55:16.046Z,59.30
2017-08-20T06:57:42.286Z,59.20
2017-08-20T07:00:08.542Z,59.30
2017-08-20T07:02:35.485Z,58.80
2017-08-20T07:05:03.686Z,58.60
2017-08-20T07:07:29.987Z,58.70
2017-08-20T07:09:56.159Z,59.00
2017-08-20T07:12:23.525Z,58.30
2017-08-20T07:14:50.729Z,58.10
2017-08-20T07:17:17.104Z,57.40
2017-08-20T07:19:43.401Z,57.70
2017-08-20T07:22:09.583Z,57.10
2017-08-20T07:24:36.515Z,57.10
2017-08-20T07:27:03.434Z,57.10
2017-08-20T07:29:29.594Z,57.10
2017-08-20T07:31:55.786Z,57.00
2017-08-20T07:34:21.967Z,57.20
2017-08-20T07:36:48.152Z,56.60
2017-08-20T07:39:14.755Z,57.00
2017-08-20T07:41:40.983Z,57.00
2017-08-20T07:44:07.171Z,56.10
2017-08-20T07:46:33.585Z,56.20
2017-08-20T07:48:59.763Z,56.10
2017-08-20T07:51:26.049Z,56.30
2017-08-20T07:53:52.564Z,55.50
2017-08-20T07:56:18.965Z,55.10
2017-08-20T07:58:45.647Z,55.40
2017-08-20T08:01:12.717Z,53.70
2017-08-20T08:03:40.320Z,53.80
2017-08-20T08:06:07.227Z,52.80
2017-08-20T08:08:33.446Z,52.80
2017-08-20T08:10:59.648Z,52.90
2017-08-20T08:13:27.153Z,52.40
2017-08-20T08:15:53.399Z,51.50
2017-08-20T08:18:19.631Z,51.60
2017-08-20T08:20:45.865Z,51.20
2017-08-20T08:23:12.089Z,51.20
2017-08-20T08:25:38.260Z,50.80
2017-08-20T08:28:04.451Z,50.20
2017-08-20T08:30:30.680Z,50.20
2017-08-20T08:32:56.916Z,50.30
2017-08-20T08:35:23.096Z,50.50
2017-08-20T08:37:49.379Z,50.10
2017-08-20T08:40:15.675Z,50.20
2017-08-20T08:42:42.060Z,49.30
2017-08-20T08:45:08.263Z,49.10
2017-08-20T08:47:34.415Z,49.10
2017-08-20T08:50:01.327Z,48.20
2017-08-20T08:52:27.519Z,48.20
2017-08-20T08:54:53.994Z,49.10
2017-08-20T08:57:20.187Z,49.20
2017-08-20T08:59:46.347Z,48.90
2017-08-20T09:02:12.554Z,48.90
2017-08-20T09:04:38.818Z,48.30
2017-08-20T09:07:05.047Z,47.70
2017-08-20T09:09:31.964Z,47.20
2017-08-20T09:11:58.170Z,47.10
2017-08-20T09:14:24.402Z,47.40
2017-08-20T09:16:51.572Z,47.10
2017-08-20T09:19:17.768Z,46.00
2017-08-20T09:21:43.959Z,46.40
2017-08-20T09:24:10.147Z,45.60
2017-08-20T09:26:36.364Z,46.20
2017-08-20T09:29:02.551Z,46.50
2017-08-20T09:31:28.875Z,46.70
2017-08-20T09:33:55.849Z,45.50
2017-08-20T09:36:22.159Z,45.50
2017-08-20T09:38:48.329Z,45.00
2017-08-20T09:41:14.523Z,44.50
2017-08-20T09:43:40.679Z,45.00
2017-08-20T09:46:06.888Z,45.30
2017-08-20T09:48:33.035Z,45.20
2017-08-20T09:50:59.231Z,45.60
2017-08-20T09:53:26.163Z,42.50
2017-08-20T09:55:52.324Z,42.50
2017-08-20T09:58:18.501Z,42.90
2017-08-20T10:00:44.762Z,42.70
2017-08-20T10:03:11.770Z,43.40
2017-08-20T10:05:37.980Z,43.40
2017-08-20T10:08:04.440Z,42.40
2017-08-20T10:10:30.590Z,42.50
2017-08-20T10:12:56.788Z,43.00
2017-08-20T10:15:23.010Z,43.00
2017-08-20T10:17:50.041Z,42.40
2017-08-20T10:20:16.222Z,42.40
2017-08-20T10:22:42.424Z,42.10
2017-08-20T10:25:08.637Z,40.90
2017-08-20T10:27:34.819Z,40.20
2017-08-20T10:30:01.103Z,38.80
2017-08-20T10:32:27.261Z,39.20
2017-08-20T10:34:53.577Z,37.90
2017-08-20T10:37:21.867Z,37.00
2017-08-20T10:39:48.095Z,36.10
2017-08-20T10:42:21.279Z,35.70
2017-08-20T10:44:47.687Z,35.20
2017-08-20T10:47:13.847Z,35.60
2017-08-20T10:49:40.049Z,35.10
2017-08-20T10:52:06.245Z,33.20
2017-08-20T10:54:33.808Z,34.00
2017-08-20T10:57:00.272Z,33.50
2017-08-20T10:59:27.394Z,33.80
2017-08-20T11:01:53.536Z,32.80
2017-08-20T11:04:19.742Z,31.70
2017-08-20T11:06:46.313Z,31.60
2017-08-20T11:09:12.713Z,31.50
2017-08-20T11:11:38.922Z,29.90
2017-08-20T11:14:05.127Z,29.90
2017-08-20T11:16:32.049Z,30.30
2017-08-20T11:18:58.208Z,30.30
2017-08-20T11:21:24.458Z,29.90
2017-08-20T11:23:50.639Z,30.30
2017-08-20T11:26:16.855Z,31.10
2017-08-20T11:28:44.073Z,30.30
2017-08-20T11:31:10.312Z,29.30
2017-08-20T11:33:36.474Z,27.90
2017-08-20T11:36:03.428Z,27.80
2017-08-20T11:38:29.595Z,27.80
2017-08-20T11:40:55.776Z,27.40
2017-08-20T11:43:21.953Z,28.30
2017-08-20T11:45:48.207Z,27.80
2017-08-20T11:48:15.199Z,27.50
2017-08-20T11:50:41.410Z,28.40
2017-08-20T11:53:07.550Z,26.70
2017-08-20T11:55:33.739Z,27.60
2017-08-20T11:57:59.911Z,28.40
2017-08-20T12:00:26.271Z,27.80
2017-08-20T12:02:52.458Z,25.80
2017-08-20T12:05:18.673Z,26.00
2017-08-20T12:07:48.005Z,26.20
2017-08-20T12:10:14.135Z,25.00
2017-08-20T12:12:40.350Z,24.70
2017-08-20T12:15:06.599Z,25.50
2017-08-20T12:17:32.879Z,24.90
2017-08-20T12:19:59.043Z,24.50
2017-08-20T12:22:25.225Z,24.80
2017-08-20T12:24:51.446Z,24.30
2017-08-20T12:27:18.248Z,23.90
2017-08-20T12:32:16.280Z,22.20
2017-08-20T12:34:43.254Z,22.60
2017-08-20T12:37:09.447Z,23.40
2017-08-20T12:39:35.599Z,23.90
2017-08-20T12:42:01.757Z,23.30
2017-08-20T12:44:28.105Z,23.20
2017-08-20T12:46:54.319Z,23.30
2017-08-20T12:49:21.310Z,23.00
2017-08-20T12:51:47.463Z,23.00
2017-08-20T12:54:13.727Z,22.40
2017-08-20T12:56:39.862Z,23.30
2017-08-20T12:59:06.023Z,23.60
2017-08-20T13:01:32.368Z,24.00
2017-08-20T13:03:58.605Z,24.70
2017-08-20T13:06:24.855Z,25.60
2017-08-20T13:08:51.751Z,25.20
2017-08-20T13:11:18.012Z,25.20
2017-08-20T13:13:44.224Z,25.40
2017-08-20T13:16:10.404Z,25.30
2017-08-20T13:18:38.889Z,25.80
2017-08-20T13:21:05.931Z,25.80
2017-08-20T13:23:32.086Z,24.90
2017-08-20T13:25:58.374Z,25.00
2017-08-20T13:28:25.416Z,24.40
2017-08-20T13:30:51.600Z,24.40
2017-08-20T13:33:18.564Z,24.20
2017-08-20T13:35:47.023Z,24.20
2017-08-20T13:38:13.194Z,24.50
2017-08-20T13:40:39.330Z,23.50
2017-08-20T13:43:05.566Z,23.20
2017-08-20T13:45:31.743Z,23.70
2017-08-20T13:47:58.907Z,22.90
2017-08-20T13:50:25.101Z,22.80
2017-08-20T13:52:51.326Z,22.70
2017-08-20T13:55:17.481Z,22.50
2017-08-20T13:57:43.664Z,22.60
2017-08-20T14:00:09.830Z,23.90
2017-08-20T14:02:36.036Z,23.40
2017-08-20T14:05:02.345Z,24.10
2017-08-20T14:07:29.259Z,24.20
2017-08-20T14:09:55.427Z,24.30
2017-08-20T14:12:21.582Z,23.60
2017-08-20T14:14:47.849Z,24.70
2017-08-20T14:17:14.078Z,24.10
2017-08-20T14:19:40.242Z,24.10
2017-08-20T14:22:06.379Z,25.00
2017-08-20T14:24:33.143Z,25.10
2017-08-20T14:26:59.321Z,26.10
2017-08-20T14:29:25.574Z,26.50
2017-08-20T14:31:51.884Z,26.20
2017-08-20T14:34:21.290Z,27.20
2017-08-20T14:36:47.708Z,25.90
2017-08-20T14:39:13.919Z,26.10
2017-08-20T14:41:40.216Z,27.20
2017-08-20T14:44:06.525Z,27.50
2017-08-20T14:46:32.719Z,26.90
2017-08-20T14:48:58.882Z,27.30
2017-08-20T14:51:25.040Z,27.20
2017-08-20T14:53:51.219Z,25.80
2017-08-20T14:56:17.577Z,26.50
2017-08-20T14:58:43.819Z,25.70
2017-08-20T15:01:09.999Z,25.10
2017-08-20T15:03:36.234Z,25.30
2017-08-20T15:06:02.418Z,25.70
2017-08-20T15:08:28.683Z,26.20
2017-08-20T15:10:54.967Z,26.90
2017-08-20T15:13:21.194Z,26.60
2017-08-20T15:15:47.374Z,27.60
2017-08-20T15:18:13.541Z,27.20
2017-08-20T15:20:40.419Z,27.40
2017-08-20T15:23:06.602Z,27.20
2017-08-20T15:25:33.533Z,27.80
2017-08-20T15:28:00.334Z,27.80
2017-08-20T15:30:27.575Z,27.70
2017-08-20T15:32:54.599Z,27.50
2017-08-20T15:35:21.574Z,27.90
2017-08-20T15:37:47.762Z,28.00
2017-08-20T15:40:14.189Z,28.20
2017-08-20T15:42:40.664Z,28.80
2017-08-20T15:45:06.875Z,28.70
2017-08-20T15:47:33.019Z,29.20
2017-08-20T15:49:59.260Z,29.10
2017-08-20T15:52:25.452Z,29.80
2017-08-20T15:54:52.422Z,29.10
2017-08-20T15:57:18.574Z,29.10
2017-08-20T15:59:44.727Z,28.80
2017-08-20T16:02:10.899Z,29.30
2017-08-20T16:04:37.107Z,29.10
2017-08-20T16:07:03.326Z,29.50
2017-08-20T16:09:29.545Z,29.60
2017-08-20T16:11:57.060Z,29.50
2017-08-20T16:14:23.290Z,29.80
2017-08-20T16:16:49.459Z,29.40
2017-08-20T16:19:16.699Z,30.00
2017-08-20T16:21:46.167Z,30.20
2017-08-20T16:24:12.671Z,31.60
2017-08-20T16:26:38.936Z,30.80
2017-08-20T16:29:05.208Z,31.50
2017-08-20T16:31:31.432Z,30.00
2017-08-20T16:33:57.717Z,30.20
2017-08-20T16:36:23.920Z,30.70
2017-08-20T16:38:50.210Z,31.10
2017-08-20T16:41:16.454Z,31.40
2017-08-20T16:43:42.725Z,31.40
2017-08-20T16:46:09.739Z,31.40
2017-08-20T16:48:35.892Z,31.50
2017-08-20T16:51:02.074Z,32.20
2017-08-20T16:53:28.304Z,32.40
2017-08-20T16:55:54.480Z,31.90
2017-08-20T16:58:20.665Z,32.00
2017-08-20T17:00:46.879Z,32.20
2017-08-20T17:03:13.069Z,32.60
2017-08-20T17:05:39.378Z,32.10
2017-08-20T17:08:05.640Z,31.60
2017-08-20T17:10:31.860Z,31.20
2017-08-20T17:12:58.308Z,32.10
2017-08-20T17:15:24.576Z,32.80
2017-08-20T17:17:50.759Z,32.70
2017-08-20T17:20:16.978Z,32.40
2017-08-20T17:22:43.139Z,33.00
2017-08-20T17:25:10.335Z,32.80
2017-08-20T17:27:36.531Z,32.10
2017-08-20T17:30:02.740Z,32.00
2017-08-20T17:32:28.943Z,32.30
2017-08-20T17:34:55.216Z,32.40
2017-08-20T17:37:21.501Z,32.60
2017-08-20T17:39:47.699Z,32.50
2017-08-20T17:42:13.881Z,32.90
2017-08-20T17:44:40.053Z,32.70
2017-08-20T17:47:06.985Z,33.20
2017-08-20T17:49:34.113Z,33.20
2017-08-20T17:52:00.326Z,33.20
2017-08-20T17:54:26.514Z,33.30
2017-08-20T17:56:52.953Z,33.00
2017-08-20T17:59:19.164Z,32.90
2017-08-20T18:01:45.426Z,32.90
2017-08-20T18:04:11.680Z,33.00
2017-08-20T18:06:38.932Z,33.00
2017-08-20T18:09:05.132Z,33.40
2017-08-20T18:11:31.330Z,33.20
2017-08-20T18:13:57.472Z,33.40
2017-08-20T18:16:23.720Z,34.10
2017-08-20T18:18:49.864Z,34.00
2017-08-20T18:21:16.140Z,34.40
2017-08-20T18:23:42.359Z,34.40
2017-08-20T18:26:08.505Z,34.60
2017-08-20T18:28:34.754Z,35.20
2017-08-20T18:31:00.973Z,35.30
2017-08-20T18:33:27.875Z,35.60
2017-08-20T18:35:54.165Z,35.60
2017-08-20T18:38:20.353Z,35.90
2017-08-20T18:40:46.525Z,35.80
2017-08-20T18:43:12.704Z,35.70
2017-08-20T18:45:38.866Z,37.20
2017-08-20T18:48:09.943Z,37.20
2017-08-20T18:50:36.087Z,36.70
2017-08-20T18:53:02.265Z,36.70
2017-08-20T18:55:28.403Z,37.00
2017-08-20T18:57:54.558Z,36.90
2017-08-20T19:00:20.801Z,38.00
2017-08-20T19:02:46.991Z,37.60
2017-08-20T19:05:13.328Z,38.60
2017-08-20T19:07:39.496Z,39.50
2017-08-20T19:10:05.661Z,39.70
2017-08-20T19:12:33.016Z,39.60
2017-08-20T19:14:59.156Z,39.50
2017-08-20T19:17:26.068Z,41.30
2017-08-20T19:19:52.190Z,40.50
2017-08-20T19:22:18.347Z,41.40
2017-08-20T19:24:44.533Z,41.70
2017-08-20T19:27:11.409Z,42.60
2017-08-20T19:29:37.544Z,42.60
2017-08-20T19:32:03.679Z,43.90
2017-08-20T19:34:30.556Z,44.20
2017-08-20T19:36:56.702Z,44.20
2017-08-20T19:39:22.829Z,45.30
2017-08-20T19:41:49.042Z,44.50
2017-08-20T19:44:15.183Z,44.50
2017-08-20T19:46:41.307Z,44.40
2017-08-20T19:49:07.451Z,45.40
2017-08-20T19:51:33.591Z,46.30
2017-08-20T19:54:00.487Z,46.90
2017-08-20T19:56:26.618Z,47.00
2017-08-20T19:58:52.807Z,47.10
2017-08-20T20:01:18.987Z,47.70
2017-08-20T20:03:45.148Z,47.80
2017-08-20T20:06:11.297Z,47.80
2017-08-20T20:08:37.442Z,48.00
2017-08-20T20:11:03.563Z,47.90
2017-08-20T20:13:29.714Z,49.20
2017-08-20T20:15:56.599Z,49.20
2017-08-20T20:18:22.745Z,49.20
2017-08-20T20:20:48.883Z,49.30
2017-08-20T20:23:15.031Z,49.80
2017-08-20T20:25:41.228Z,50.00
2017-08-20T20:28:07.460Z,50.50
2017-08-20T20:30:33.606Z,50.70
2017-08-20T20:33:00.495Z,51.20
2017-08-20T20:35:26.656Z,50.50
2017-08-20T20:37:53.602Z,51.40
2017-08-20T20:40:19.739Z,51.40
2017-08-20T20:42:45.895Z,51.50
2017-08-20T20:45:12.069Z,51.90
2017-08-20T20:47:38.222Z,52.20
2017-08-20T20:50:04.375Z,52.70
2017-08-20T20:52:30.583Z,53.00
2017-08-20T20:54:56.731Z,52.80
2017-08-20T20:57:22.867Z,52.70
2017-08-20T20:59:49.055Z,53.40
2017-08-20T21:02:15.395Z,53.40
2017-08-20T21:04:42.417Z,53.80
2017-08-20T21:07:09.670Z,53.80
2017-08-20T21:09:36.586Z,55.20
2017-08-20T21:12:02.721Z,55.20
2017-08-20T21:14:29.622Z,55.80
2017-08-20T21:16:55.754Z,55.70
2017-08-20T21:19:21.931Z,56.30
2017-08-20T21:21:48.103Z,56.30
2017-08-20T21:24:14.249Z,56.80
2017-08-20T21:26:40.383Z,56.90
2017-08-20T21:29:06.536Z,57.30
2017-08-20T21:31:33.400Z,58.30
2017-08-20T21:33:59.551Z,58.50
2017-08-20T21:36:26.431Z,58.50
2017-08-20T21:38:52.558Z,57.80
2017-08-20T21:41:18.699Z,58.00
2017-08-20T21:43:44.897Z,58.20
2017-08-20T21:46:11.051Z,58.10
2017-08-20T21:48:37.202Z,58.10
2017-08-20T21:51:03.378Z,58.60
2017-08-20T21:53:29.523Z,58.30
2017-08-20T21:55:55.688Z,58.60
2017-08-20T21:58:21.819Z,58.70
2017-08-20T22:00:47.984Z,58.60
2017-08-20T22:03:14.148Z,58.50
2017-08-20T22:05:40.300Z,57.50
2017-08-20T22:08:06.440Z,58.10
2017-08-20T22:10:32.610Z,58.00
2017-08-20T22:12:58.771Z,57.90
2017-08-20T22:15:24.938Z,57.70
2017-08-20T22:17:51.158Z,58.20
2017-08-20T22:20:17.408Z,58.10
2017-08-20T22:22:43.546Z,58.20
2017-08-20T22:25:09.734Z,58.60
2017-08-20T22:27:35.876Z,58.10
2017-08-20T22:30:02.118Z,58.40
2017-08-20T22:32:28.258Z,58.70
2017-08-20T22:34:54.435Z,58.20
2017-08-20T22:37:20.583Z,58.10
2017-08-20T22:39:46.916Z,58.20
2017-08-20T22:42:13.060Z,58.40
2017-08-20T22:44:39.955Z,58.30
2017-08-20T22:47:06.130Z,58.30
2017-08-20T22:49:32.285Z,57.90
2017-08-20T22:51:58.560Z,58.50
2017-08-20T22:54:24.727Z,58.20
2017-08-20T22:56:51.616Z,59.10
2017-08-20T22:59:17.735Z,58.30
2017-08-20T23:01:43.898Z,58.40
2017-08-20T23:04:10.086Z,58.90
2017-08-20T23:06:36.286Z,58.80
2017-08-20T23:09:02.508Z,58.90
2017-08-20T23:11:28.647Z,58.90
2017-08-20T23:13:54.807Z,59.10
2017-08-20T23:16:20.959Z,59.10
2017-08-20T23:18:47.967Z,59.20
2017-08-20T23:21:16.905Z,59.20
2017-08-20T23:23:43.097Z,59.00
2017-08-20T23:26:09.246Z,58.90
2017-08-20T23:28:39.421Z,59.00
2017-08-20T23:31:07.767Z,59.30
2017-08-20T23:33:33.903Z,59.60
2017-08-20T23:36:00.043Z,59.80
2017-08-20T23:38:26.176Z,59.60
2017-08-20T23:40:52.315Z,59.50
2017-08-20T23:43:19.198Z,59.60
2017-08-20T23:45:45.366Z,59.60
2017-08-20T23:48:11.600Z,59.60
2017-08-20T23:50:37.722Z,60.00
2017-08-20T23:53:03.867Z,59.90
2017-08-20T23:55:29.994Z,60.50
2017-08-20T23:57:56.882Z,60.30
